createdAt,value
2018-11-05T00:00:33.259Z,883.69
2018-11-05T00:01:33.247Z,883.66
2018-11-05T00:02:33.239Z,883.66
2018-11-05T00:03:33.229Z,883.62
2018-11-05T00:04:33.214Z,883.63
2018-11-05T00:05:33.205Z,883.66
2018-11-05T00:06:33.195Z,883.68
2018-11-05T00:07:33.185Z,883.64
2018-11-05T00:08:33.172Z,883.61
2018-11-05T00:09:33.162Z,883.57
2018-11-05T00:10:33.150Z,883.58
2018-11-05T00:11:33.141Z,883.57
2018-11-05T00:12:33.128Z,883.50
2018-11-05T00:13:33.114Z,883.51
2018-11-05T00:14:33.101Z,883.49
2018-11-05T00:15:33.093Z,883.51
2018-11-05T00:16:33.083Z,883.57
2018-11-05T00:17:33.070Z,883.53
2018-11-05T00:18:33.058Z,883.53
2018-11-05T00:19:33.047Z,883.52
2018-11-05T00:20:33.037Z,883.51
2018-11-05T00:21:33.023Z,883.52
2018-11-05T00:22:33.018Z,883.46
2018-11-05T00:23:33.002Z,883.45
2018-11-05T00:24:32.996Z,883.43
2018-11-05T00:25:32.982Z,883.48
2018-11-05T00:26:32.992Z,883.44
2018-11-05T00:27:32.960Z,883.44
2018-11-05T00:28:32.948Z,883.44
2018-11-05T00:29:32.940Z,883.43
2018-11-05T00:30:32.927Z,883.44
2018-11-05T00:31:32.919Z,883.46
2018-11-05T00:32:32.904Z,883.47
2018-11-05T00:33:32.889Z,883.53
2018-11-05T00:34:32.884Z,883.57
2018-11-05T00:35:32.870Z,883.53
2018-11-05T00:36:32.855Z,883.56
2018-11-05T00:37:32.844Z,883.56
2018-11-05T00:38:32.835Z,883.52
2018-11-05T00:39:32.827Z,883.56
2018-11-05T00:40:32.809Z,883.48
2018-11-05T00:41:32.802Z,883.53
2018-11-05T00:42:32.792Z,883.49
2018-11-05T00:43:32.782Z,883.50
2018-11-05T00:44:32.764Z,883.45
2018-11-05T00:45:32.763Z,883.41
2018-11-05T00:46:32.747Z,883.40
2018-11-05T00:47:32.735Z,883.38
2018-11-05T00:48:32.733Z,883.37
2018-11-05T00:49:32.713Z,883.37
2018-11-05T00:50:32.702Z,883.35
2018-11-05T00:51:32.695Z,883.33
2018-11-05T00:52:32.676Z,883.30
2018-11-05T00:53:32.669Z,883.26
2018-11-05T00:54:32.668Z,883.25
2018-11-05T00:55:32.641Z,883.22
2018-11-05T00:56:32.630Z,883.23
2018-11-05T00:57:32.623Z,883.23
2018-11-05T00:58:32.610Z,883.21
2018-11-05T00:59:32.596Z,883.21
2018-11-05T01:00:32.590Z,883.17
2018-11-05T01:01:32.617Z,883.13
2018-11-05T01:02:32.566Z,883.13
2018-11-05T01:03:32.555Z,883.13
2018-11-05T01:04:32.539Z,883.14
2018-11-05T01:05:32.524Z,883.17
2018-11-05T01:06:32.519Z,883.17
2018-11-05T01:07:32.506Z,883.18
2018-11-05T01:08:32.493Z,883.11
2018-11-05T01:09:32.485Z,883.14
2018-11-05T01:10:32.474Z,883.11
2018-11-05T01:11:32.470Z,883.08
2018-11-05T01:12:32.453Z,883.08
2018-11-05T01:13:32.440Z,883.09
2018-11-05T01:14:32.427Z,883.11
2018-11-05T01:15:32.418Z,883.11
2018-11-05T01:16:32.405Z,883.13
2018-11-05T01:17:32.390Z,883.05
2018-11-05T01:18:32.381Z,883.11
2018-11-05T01:19:32.367Z,883.11
2018-11-05T01:20:32.365Z,883.13
2018-11-05T01:21:32.352Z,883.09
2018-11-05T01:22:32.335Z,883.10
2018-11-05T01:23:32.327Z,883.07
2018-11-05T01:24:32.307Z,883.04
2018-11-05T01:25:32.301Z,883.08
2018-11-05T01:26:32.291Z,883.03
2018-11-05T01:27:32.281Z,883.05
2018-11-05T01:28:32.270Z,883.05
2018-11-05T01:29:32.260Z,883.03
2018-11-05T01:30:32.242Z,883.06
2018-11-05T01:31:32.232Z,883.06
2018-11-05T01:32:32.224Z,883.05
2018-11-05T01:33:32.210Z,883.05
2018-11-05T01:34:32.196Z,883.02
2018-11-05T01:35:32.191Z,882.98
2018-11-05T01:36:32.176Z,882.97
2018-11-05T01:37:32.163Z,882.89
2018-11-05T01:38:32.155Z,882.85
2018-11-05T01:39:32.139Z,882.76
2018-11-05T01:40:32.129Z,882.75
2018-11-05T01:41:32.113Z,882.80
2018-11-05T01:42:32.108Z,882.80
2018-11-05T01:43:32.092Z,882.73
2018-11-05T01:44:32.082Z,882.73
2018-11-05T01:45:32.070Z,882.71
2018-11-05T01:46:32.056Z,882.76
2018-11-05T01:47:32.046Z,882.77
2018-11-05T01:48:32.037Z,882.77
2018-11-05T01:49:32.029Z,882.80
2018-11-05T01:50:32.016Z,882.79
2018-11-05T01:51:32.004Z,882.75
2018-11-05T01:52:31.990Z,882.72
2018-11-05T01:53:31.980Z,882.71
2018-11-05T01:54:31.967Z,882.72
2018-11-05T01:55:31.959Z,882.72
2018-11-05T01:56:31.944Z,882.68
2018-11-05T01:57:31.929Z,882.71
2018-11-05T01:58:31.913Z,882.72
2018-11-05T01:59:31.903Z,882.68
2018-11-05T02:00:31.907Z,882.69
2018-11-05T02:01:31.880Z,882.72
2018-11-05T02:02:31.877Z,882.73
2018-11-05T02:03:31.862Z,882.73
2018-11-05T02:04:31.850Z,882.71
2018-11-05T02:05:31.841Z,882.72
2018-11-05T02:06:31.825Z,882.65
2018-11-05T02:07:31.817Z,882.70
2018-11-05T02:08:31.803Z,882.64
2018-11-05T02:09:31.791Z,882.68
2018-11-05T02:10:31.849Z,882.65
2018-11-05T02:11:31.773Z,882.72
2018-11-05T02:12:31.756Z,882.66
2018-11-05T02:13:31.855Z,882.62
2018-11-05T02:14:31.733Z,882.65
2018-11-05T02:15:31.722Z,882.63
2018-11-05T02:16:31.710Z,882.67
2018-11-05T02:17:31.700Z,882.70
2018-11-05T02:18:31.685Z,882.77
2018-11-05T02:19:31.678Z,882.72
2018-11-05T02:20:31.665Z,882.76
2018-11-05T02:21:31.657Z,882.69
2018-11-05T02:22:31.640Z,882.67
2018-11-05T02:23:31.628Z,882.66
2018-11-05T02:24:31.616Z,882.64
2018-11-05T02:25:31.600Z,882.66
2018-11-05T02:26:31.597Z,882.65
2018-11-05T02:27:31.579Z,882.63
2018-11-05T02:28:31.572Z,882.60
2018-11-05T02:29:31.563Z,882.63
2018-11-05T02:30:31.551Z,882.60
2018-11-05T02:31:31.535Z,882.66
2018-11-05T02:32:31.520Z,882.66
2018-11-05T02:33:31.512Z,882.64
2018-11-05T02:34:31.505Z,882.69
2018-11-05T02:35:31.493Z,882.67
2018-11-05T02:36:31.475Z,882.68
2018-11-05T02:37:31.465Z,882.69
2018-11-05T02:38:31.456Z,882.65
2018-11-05T02:39:31.440Z,882.63
2018-11-05T02:40:31.432Z,882.61
2018-11-05T02:41:31.421Z,882.59
2018-11-05T02:42:31.410Z,882.59
2018-11-05T02:43:31.395Z,882.55
2018-11-05T02:44:31.387Z,882.55
2018-11-05T02:45:31.376Z,882.55
2018-11-05T02:46:31.358Z,882.58
2018-11-05T02:47:31.351Z,882.61
2018-11-05T02:48:31.336Z,882.58
2018-11-05T02:49:31.326Z,882.62
2018-11-05T02:50:31.307Z,882.63
2018-11-05T02:51:31.301Z,882.63
2018-11-05T02:52:31.291Z,882.66
2018-11-05T02:53:31.280Z,882.63
2018-11-05T02:54:31.262Z,882.65
2018-11-05T02:55:31.262Z,882.63
2018-11-05T02:56:31.248Z,882.63
2018-11-05T02:57:31.232Z,882.64
2018-11-05T02:58:31.223Z,882.64
2018-11-05T02:59:31.213Z,882.60
2018-11-05T03:00:31.213Z,882.60
2018-11-05T03:01:31.184Z,882.62
2018-11-05T03:02:31.168Z,882.60
2018-11-05T03:03:31.160Z,882.66
2018-11-05T03:04:31.148Z,882.59
2018-11-05T03:05:31.134Z,882.61
2018-11-05T03:06:31.131Z,882.60
2018-11-05T03:07:31.115Z,882.61
2018-11-05T03:08:31.106Z,882.55
2018-11-05T03:09:31.089Z,882.53
2018-11-05T03:10:31.083Z,882.51
2018-11-05T03:11:31.065Z,882.44
2018-11-05T03:12:31.056Z,882.44
2018-11-05T03:13:31.047Z,882.43
2018-11-05T03:14:31.028Z,882.38
2018-11-05T03:15:31.023Z,882.34
2018-11-05T03:16:31.010Z,882.37
2018-11-05T03:17:30.997Z,882.33
2018-11-05T03:18:30.982Z,882.31
2018-11-05T03:19:30.971Z,882.29
2018-11-05T03:20:30.969Z,882.34
2018-11-05T03:21:30.947Z,882.31
2018-11-05T03:22:30.944Z,882.35
2018-11-05T03:23:30.926Z,882.36
2018-11-05T03:24:30.912Z,882.36
2018-11-05T03:25:30.904Z,882.37
2018-11-05T03:26:30.891Z,882.35
2018-11-05T03:27:30.877Z,882.34
2018-11-05T03:28:30.869Z,882.39
2018-11-05T03:29:30.858Z,882.37
2018-11-05T03:30:30.847Z,882.36
2018-11-05T03:31:30.831Z,882.34
2018-11-05T03:32:30.818Z,882.29
2018-11-05T03:33:30.815Z,882.31
2018-11-05T03:34:30.803Z,882.29
2018-11-05T03:35:30.790Z,882.29
2018-11-05T03:36:30.776Z,882.27
2018-11-05T03:37:30.760Z,882.28
2018-11-05T03:38:30.761Z,882.31
2018-11-05T03:39:30.740Z,882.29
2018-11-05T03:40:30.722Z,882.29
2018-11-05T03:41:30.708Z,882.27
2018-11-05T03:42:30.704Z,882.20
2018-11-05T03:43:30.691Z,882.25
2018-11-05T03:44:30.681Z,882.25
2018-11-05T03:45:30.668Z,882.31
2018-11-05T03:46:30.665Z,882.32
2018-11-05T03:47:30.643Z,882.32
2018-11-05T03:48:30.633Z,882.31
2018-11-05T03:49:30.615Z,882.31
2018-11-05T03:50:30.610Z,882.29
2018-11-05T03:51:30.599Z,882.22
2018-11-05T03:52:30.588Z,882.18
2018-11-05T03:53:30.577Z,882.20
2018-11-05T03:54:30.562Z,882.15
2018-11-05T03:55:30.561Z,882.13
2018-11-05T03:56:30.623Z,882.11
2018-11-05T03:57:30.528Z,882.13
2018-11-05T03:58:30.516Z,882.09
2018-11-05T03:59:30.503Z,882.10
2018-11-05T04:00:30.490Z,882.15
2018-11-05T04:01:30.477Z,882.08
2018-11-05T04:02:30.463Z,882.09
2018-11-05T04:03:30.555Z,882.04
2018-11-05T04:04:30.444Z,882.04
2018-11-05T04:05:30.428Z,882.04
2018-11-05T04:06:30.419Z,882.03
2018-11-05T04:07:30.407Z,882.06
2018-11-05T04:08:30.397Z,882.05
2018-11-05T04:09:30.385Z,882.08
2018-11-05T04:10:30.369Z,882.08
2018-11-05T04:11:30.357Z,882.08
2018-11-05T04:12:30.348Z,882.09
2018-11-05T04:13:30.335Z,882.09
2018-11-05T04:14:30.324Z,882.07
2018-11-05T04:15:30.409Z,882.07
2018-11-05T04:16:30.298Z,882.11
2018-11-05T04:17:30.289Z,882.10
2018-11-05T04:18:30.276Z,882.07
2018-11-05T04:19:30.266Z,882.10
2018-11-05T04:20:30.250Z,882.10
2018-11-05T04:21:30.245Z,882.15
2018-11-05T04:22:30.232Z,882.12
2018-11-05T04:23:30.215Z,882.10
2018-11-05T04:24:30.209Z,882.08
2018-11-05T04:25:30.197Z,882.11
2018-11-05T04:26:30.179Z,882.05
2018-11-05T04:27:30.176Z,882.04
2018-11-05T04:28:30.157Z,882.06
2018-11-05T04:29:30.144Z,882.05
2018-11-05T04:30:30.136Z,882.02
2018-11-05T04:31:30.124Z,882.07
2018-11-05T04:32:30.112Z,882.04
2018-11-05T04:33:30.099Z,882.05
2018-11-05T04:34:30.084Z,882.07
2018-11-05T04:35:30.075Z,882.06
2018-11-05T04:36:30.058Z,882.05
2018-11-05T04:37:30.050Z,882.04
2018-11-05T04:38:30.038Z,882.04
2018-11-05T04:39:30.051Z,882.05
2018-11-05T04:40:30.021Z,881.99
2018-11-05T04:41:30.001Z,882.09
2018-11-05T04:42:29.990Z,882.04
2018-11-05T04:43:29.991Z,882.08
2018-11-05T04:44:29.968Z,882.08
2018-11-05T04:45:29.961Z,882.11
2018-11-05T04:46:29.947Z,882.10
2018-11-05T04:47:29.932Z,882.10
2018-11-05T04:48:29.921Z,882.09
2018-11-05T04:49:29.905Z,882.12
2018-11-05T04:50:29.894Z,882.11
2018-11-05T04:51:29.894Z,882.13
2018-11-05T04:52:29.886Z,882.13
2018-11-05T04:53:29.864Z,882.14
2018-11-05T04:54:29.845Z,882.14
2018-11-05T04:55:29.833Z,882.16
2018-11-05T04:56:29.827Z,882.10
2018-11-05T04:57:29.813Z,882.04
2018-11-05T04:58:29.804Z,882.07
2018-11-05T04:59:29.788Z,881.99
2018-11-05T05:00:29.782Z,882.04
2018-11-05T05:01:29.768Z,882.03
2018-11-05T05:02:29.753Z,881.99
2018-11-05T05:03:29.870Z,881.96
2018-11-05T05:04:29.727Z,881.96
2018-11-05T05:05:29.719Z,881.96
2018-11-05T05:06:29.704Z,881.92
2018-11-05T05:07:29.695Z,881.93
2018-11-05T05:08:29.679Z,881.90
2018-11-05T05:09:29.665Z,881.92
2018-11-05T05:10:29.657Z,881.94
2018-11-05T05:11:29.647Z,881.92
2018-11-05T05:12:29.636Z,881.92
2018-11-05T05:13:29.622Z,881.95
2018-11-05T05:14:29.607Z,881.90
2018-11-05T05:15:29.600Z,881.93
2018-11-05T05:16:29.582Z,881.93
2018-11-05T05:17:29.570Z,881.93
2018-11-05T05:18:29.559Z,881.90
2018-11-05T05:19:29.547Z,881.88
2018-11-05T05:20:29.539Z,881.87
2018-11-05T05:21:29.519Z,881.91
2018-11-05T05:22:29.636Z,881.94
2018-11-05T05:23:29.501Z,881.97
2018-11-05T05:24:29.491Z,881.96
2018-11-05T05:25:29.474Z,881.91
2018-11-05T05:26:29.464Z,881.86
2018-11-05T05:27:29.454Z,881.85
2018-11-05T05:28:29.445Z,881.81
2018-11-05T05:29:29.424Z,881.76
2018-11-05T05:30:29.421Z,881.75
2018-11-05T05:31:29.405Z,881.77
2018-11-05T05:32:29.399Z,881.79
2018-11-05T05:33:29.461Z,881.82
2018-11-05T05:34:29.370Z,881.81
2018-11-05T05:35:29.367Z,881.81
2018-11-05T05:36:29.351Z,881.81
2018-11-05T05:37:29.333Z,881.85
2018-11-05T05:38:29.322Z,881.82
2018-11-05T05:39:29.315Z,881.80
2018-11-05T05:40:29.297Z,881.79
2018-11-05T05:41:29.376Z,881.76
2018-11-05T05:42:29.274Z,881.79
2018-11-05T05:43:29.259Z,881.81
2018-11-05T05:44:29.249Z,881.86
2018-11-05T05:45:29.233Z,881.90
2018-11-05T05:46:29.228Z,881.96
2018-11-05T05:47:29.211Z,881.97
2018-11-05T05:48:29.199Z,881.99
2018-11-05T05:49:29.187Z,881.97
2018-11-05T05:50:29.183Z,882.01
2018-11-05T05:51:29.168Z,882.02
2018-11-05T05:52:29.154Z,882.03
2018-11-05T05:53:29.150Z,882.04
2018-11-05T05:54:29.124Z,882.06
2018-11-05T05:55:29.114Z,882.08
2018-11-05T05:56:29.108Z,882.05
2018-11-05T05:57:29.096Z,882.03
2018-11-05T05:58:29.084Z,881.99
2018-11-05T05:59:29.072Z,881.98
2018-11-05T06:00:29.055Z,881.96
2018-11-05T06:01:29.047Z,881.97
2018-11-05T06:02:29.030Z,881.94
2018-11-05T06:03:29.022Z,881.96
2018-11-05T06:04:29.008Z,881.94
2018-11-05T06:05:28.993Z,881.89
2018-11-05T06:06:29.042Z,881.94
2018-11-05T06:07:28.967Z,881.93
2018-11-05T06:08:28.963Z,882.00
2018-11-05T06:09:28.995Z,882.04
2018-11-05T06:10:28.932Z,882.06
2018-11-05T06:11:28.919Z,882.06
2018-11-05T06:12:28.909Z,882.06
2018-11-05T06:13:28.902Z,882.05
2018-11-05T06:14:28.885Z,882.00
2018-11-05T06:15:28.875Z,882.02
2018-11-05T06:16:28.860Z,882.04
2018-11-05T06:17:28.855Z,882.05
2018-11-05T06:18:28.842Z,882.06
2018-11-05T06:19:28.834Z,882.08
2018-11-05T06:20:28.820Z,882.07
2018-11-05T06:21:28.805Z,882.07
2018-11-05T06:22:28.791Z,882.09
2018-11-05T06:23:28.813Z,882.10
2018-11-05T06:24:28.770Z,882.12
2018-11-05T06:25:28.751Z,882.14
2018-11-05T06:26:28.743Z,882.14
2018-11-05T06:27:28.731Z,882.14
2018-11-05T06:28:28.729Z,882.14
2018-11-05T06:29:28.705Z,882.14
2018-11-05T06:30:28.694Z,882.14
2018-11-05T06:31:28.688Z,882.20
2018-11-05T06:32:28.666Z,882.24
2018-11-05T06:33:28.656Z,882.22
2018-11-05T06:34:28.647Z,882.27
2018-11-05T06:35:28.755Z,882.30
2018-11-05T06:36:28.619Z,882.32
2018-11-05T06:37:28.611Z,882.31
2018-11-05T06:38:28.597Z,882.29
2018-11-05T06:39:28.580Z,882.33
2018-11-05T06:40:28.574Z,882.29
2018-11-05T06:41:28.715Z,882.27
2018-11-05T06:42:28.552Z,882.32
2018-11-05T06:43:28.541Z,882.38
2018-11-05T06:44:28.531Z,882.34
2018-11-05T06:45:28.556Z,882.36
2018-11-05T06:46:28.500Z,882.36
2018-11-05T06:47:28.483Z,882.35
2018-11-05T06:48:28.477Z,882.31
2018-11-05T06:49:28.463Z,882.32
2018-11-05T06:50:28.452Z,882.22
2018-11-05T06:51:28.440Z,882.34
2018-11-05T06:52:28.428Z,882.35
2018-11-05T06:53:28.415Z,882.36
2018-11-05T06:54:28.405Z,882.38
2018-11-05T06:55:28.389Z,882.42
2018-11-05T06:56:28.375Z,882.43
2018-11-05T06:57:28.432Z,882.42
2018-11-05T06:58:28.356Z,882.39
2018-11-05T06:59:28.341Z,882.39
2018-11-05T07:00:28.333Z,882.38
2018-11-05T07:01:28.324Z,882.38
2018-11-05T07:02:28.390Z,882.40
2018-11-05T07:03:28.291Z,882.46
2018-11-05T07:04:28.283Z,882.47
2018-11-05T07:05:28.274Z,882.50
2018-11-05T07:06:28.255Z,882.53
2018-11-05T07:07:28.243Z,882.53
2018-11-05T07:08:28.231Z,882.52
2018-11-05T07:09:28.226Z,882.49
2018-11-05T07:10:28.217Z,882.51
2018-11-05T07:11:28.231Z,882.53
2018-11-05T07:12:28.191Z,882.55
2018-11-05T07:13:28.169Z,882.58
2018-11-05T07:14:28.157Z,882.51
2018-11-05T07:15:28.147Z,882.53
2018-11-05T07:16:28.134Z,882.50
2018-11-05T07:17:28.124Z,882.53
2018-11-05T07:18:28.297Z,882.54
2018-11-05T07:19:28.161Z,882.56
2018-11-05T07:20:28.085Z,882.59
2018-11-05T07:21:28.079Z,882.58
2018-11-05T07:22:28.062Z,882.60
2018-11-05T07:23:28.050Z,882.58
2018-11-05T07:24:28.038Z,882.53
2018-11-05T07:25:28.026Z,882.53
2018-11-05T07:26:28.076Z,882.57
2018-11-05T07:27:28.002Z,882.61
2018-11-05T07:28:27.989Z,882.57
2018-11-05T07:29:27.975Z,882.58
2018-11-05T07:30:27.963Z,882.54
2018-11-05T07:31:27.954Z,882.54
2018-11-05T07:32:27.938Z,882.55
2018-11-05T07:33:28.096Z,882.57
2018-11-05T07:34:28.015Z,882.55
2018-11-05T07:35:27.900Z,882.54
2018-11-05T07:36:27.930Z,882.55
2018-11-05T07:37:27.880Z,882.61
2018-11-05T07:38:27.870Z,882.61
2018-11-05T07:39:27.854Z,882.61
2018-11-05T07:40:27.860Z,882.60
2018-11-05T07:41:27.835Z,882.58
2018-11-05T07:42:27.813Z,882.60
2018-11-05T07:43:27.809Z,882.61
2018-11-05T07:44:27.793Z,882.64
2018-11-05T07:45:27.777Z,882.64
2018-11-05T07:46:27.765Z,882.64
2018-11-05T07:47:27.758Z,882.64
2018-11-05T07:48:27.745Z,882.62
2018-11-05T07:49:27.731Z,882.66
2018-11-05T07:50:27.872Z,882.64
2018-11-05T07:51:27.709Z,882.67
2018-11-05T07:52:27.698Z,882.66
2018-11-05T07:53:27.686Z,882.68
2018-11-05T07:54:27.671Z,882.68
2018-11-05T07:55:27.660Z,882.68
2018-11-05T07:56:27.644Z,882.67
2018-11-05T07:57:27.634Z,882.68
2018-11-05T07:58:27.636Z,882.65
2018-11-05T07:59:27.611Z,882.65
2018-11-05T08:00:27.600Z,882.63
2018-11-05T08:01:27.585Z,882.67
2018-11-05T08:02:27.575Z,882.67
2018-11-05T08:03:27.561Z,882.67
2018-11-05T08:04:27.555Z,882.67
2018-11-05T08:05:27.537Z,882.63
2018-11-05T08:06:27.531Z,882.60
2018-11-05T08:07:27.514Z,882.61
2018-11-05T08:08:27.610Z,882.67
2018-11-05T08:09:27.490Z,882.70
2018-11-05T08:10:27.475Z,882.63
2018-11-05T08:11:27.465Z,882.61
2018-11-05T08:12:27.459Z,882.59
2018-11-05T08:13:27.441Z,882.52
2018-11-05T08:14:27.470Z,882.59
2018-11-05T08:15:27.417Z,882.64
2018-11-05T08:16:27.410Z,882.66
2018-11-05T08:17:27.399Z,882.61
2018-11-05T08:18:27.382Z,882.63
2018-11-05T08:19:27.371Z,882.65
2018-11-05T08:20:27.361Z,882.60
2018-11-05T08:21:27.343Z,882.59
2018-11-05T08:22:27.335Z,882.59
2018-11-05T08:23:27.328Z,882.56
2018-11-05T08:24:27.317Z,882.52
2018-11-05T08:25:27.302Z,882.55
2018-11-05T08:26:27.288Z,882.48
2018-11-05T08:27:27.275Z,882.46
2018-11-05T08:28:27.270Z,882.46
2018-11-05T08:29:27.250Z,882.46
2018-11-05T08:30:27.243Z,882.44
2018-11-05T08:31:27.231Z,882.48
2018-11-05T08:32:27.236Z,882.53
2018-11-05T08:33:27.204Z,882.54
2018-11-05T08:34:27.276Z,882.51
2018-11-05T08:35:27.181Z,882.50
2018-11-05T08:36:27.169Z,882.56
2018-11-05T08:37:27.159Z,882.58
2018-11-05T08:38:27.143Z,882.59
2018-11-05T08:39:27.139Z,882.58
2018-11-05T08:40:27.216Z,882.55
2018-11-05T08:41:27.114Z,882.57
2018-11-05T08:42:27.102Z,882.58
2018-11-05T08:43:27.089Z,882.55
2018-11-05T08:44:27.080Z,882.60
2018-11-05T08:45:27.068Z,882.60
2018-11-05T08:46:27.054Z,882.63
2018-11-05T08:47:27.048Z,882.64
2018-11-05T08:48:27.030Z,882.65
2018-11-05T08:49:27.029Z,882.64
2018-11-05T08:50:27.046Z,882.57
2018-11-05T08:51:27.360Z,882.64
2018-11-05T08:52:27.003Z,882.63
2018-11-05T08:53:26.978Z,882.63
2018-11-05T08:54:26.965Z,882.60
2018-11-05T08:55:26.955Z,882.63
2018-11-05T08:56:26.941Z,882.63
2018-11-05T08:57:26.994Z,882.62
2018-11-05T08:58:26.965Z,882.60
2018-11-05T08:59:26.913Z,882.54
2018-11-05T09:00:26.901Z,882.51
2018-11-05T09:01:26.883Z,882.58
2018-11-05T09:02:26.876Z,882.55
2018-11-05T09:03:26.870Z,882.52
2018-11-05T09:04:26.876Z,882.54
2018-11-05T09:05:26.855Z,882.55
2018-11-05T09:06:26.840Z,882.57
2018-11-05T09:07:26.825Z,882.60
2018-11-05T09:08:26.818Z,882.52
2018-11-05T09:09:26.806Z,882.57
2018-11-05T09:10:26.949Z,882.62
2018-11-05T09:11:27.260Z,882.60
2018-11-05T09:12:26.777Z,882.57
2018-11-05T09:13:26.770Z,882.61
2018-11-05T09:14:26.755Z,882.64
2018-11-05T09:15:26.744Z,882.64
2018-11-05T09:16:26.734Z,882.59
2018-11-05T09:17:26.724Z,882.58
2018-11-05T09:18:26.715Z,882.58
2018-11-05T09:19:26.704Z,882.50
2018-11-05T09:20:26.695Z,882.50
2018-11-05T09:21:26.681Z,882.54
2018-11-05T09:22:26.678Z,882.56
2018-11-05T09:23:26.665Z,882.51
2018-11-05T09:24:26.651Z,882.50
2018-11-05T09:25:26.648Z,882.40
2018-11-05T09:26:26.632Z,882.51
2018-11-05T09:27:26.623Z,882.47
2018-11-05T09:28:26.616Z,882.42
2018-11-05T09:29:26.607Z,882.43
2018-11-05T09:30:26.594Z,882.34
2018-11-05T09:31:26.582Z,882.36
2018-11-05T09:32:26.574Z,882.35
2018-11-05T09:33:26.567Z,882.34
2018-11-05T09:34:26.553Z,882.36
2018-11-05T09:35:26.547Z,882.26
2018-11-05T09:36:26.535Z,882.23
2018-11-05T09:37:26.529Z,882.33
2018-11-05T09:38:26.515Z,882.25
2018-11-05T09:39:26.505Z,882.26
2018-11-05T09:40:26.493Z,882.20
2018-11-05T09:41:26.493Z,882.33
2018-11-05T09:42:26.480Z,882.27
2018-11-05T09:43:26.472Z,882.25
2018-11-05T09:44:26.460Z,882.24
2018-11-05T09:45:26.456Z,882.32
2018-11-05T09:46:26.443Z,882.32
2018-11-05T09:47:26.441Z,882.30
2018-11-05T09:48:26.425Z,882.40
2018-11-05T09:49:26.429Z,882.44
2018-11-05T09:50:26.462Z,882.40
2018-11-05T09:51:26.396Z,882.46
2018-11-05T09:52:26.391Z,882.46
2018-11-05T09:53:26.380Z,882.38
2018-11-05T09:54:26.368Z,882.40
2018-11-05T09:55:26.373Z,882.39
2018-11-05T09:56:26.352Z,882.38
2018-11-05T09:57:26.356Z,882.34
2018-11-05T09:58:26.343Z,882.34
2018-11-05T09:59:26.321Z,882.30
2018-11-05T10:00:26.315Z,882.09
2018-11-05T10:01:26.301Z,882.31
2018-11-05T10:02:26.294Z,882.37
2018-11-05T10:03:26.708Z,882.20
2018-11-05T10:04:26.435Z,882.23
2018-11-05T10:05:26.303Z,882.17
2018-11-05T10:06:26.258Z,882.22
2018-11-05T10:07:26.252Z,882.24
2018-11-05T10:08:26.242Z,882.28
2018-11-05T10:09:26.231Z,882.29
2018-11-05T10:10:26.337Z,882.34
2018-11-05T10:11:26.210Z,882.29
2018-11-05T10:12:26.200Z,882.28
2018-11-05T10:13:26.196Z,882.26
2018-11-05T10:14:26.185Z,882.35
2018-11-05T10:15:26.176Z,882.25
2018-11-05T10:16:26.239Z,882.20
2018-11-05T10:17:26.155Z,882.03
2018-11-05T10:18:26.152Z,882.02
2018-11-05T10:19:26.142Z,882.03
2018-11-05T10:20:26.129Z,882.09
2018-11-05T10:21:26.126Z,882.06
2018-11-05T10:22:26.110Z,882.06
2018-11-05T10:23:26.105Z,882.12
2018-11-05T10:24:26.111Z,882.24
2018-11-05T10:25:26.087Z,882.21
2018-11-05T10:26:26.082Z,882.15
2018-11-05T10:27:26.071Z,882.10
2018-11-05T10:28:26.060Z,882.12
2018-11-05T10:29:26.048Z,882.19
2018-11-05T10:30:26.047Z,882.11
2018-11-05T10:31:26.078Z,882.18
2018-11-05T10:32:26.026Z,882.09
2018-11-05T10:33:26.050Z,882.01
2018-11-05T10:34:26.006Z,881.95
2018-11-05T10:35:25.996Z,882.02
2018-11-05T10:36:25.996Z,882.05
2018-11-05T10:37:25.982Z,882.01
2018-11-05T10:38:26.016Z,882.15
2018-11-05T10:39:25.961Z,882.09
2018-11-05T10:40:26.039Z,882.09
2018-11-05T10:41:25.949Z,881.91
2018-11-05T10:42:25.939Z,881.96
2018-11-05T10:43:25.935Z,882.17
2018-11-05T10:44:25.919Z,882.04
2018-11-05T10:45:25.919Z,881.96
2018-11-05T10:46:26.079Z,882.15
2018-11-05T10:47:25.895Z,881.99
2018-11-05T10:48:25.891Z,882.05
2018-11-05T10:49:25.880Z,882.08
2018-11-05T10:50:25.947Z,882.10
2018-11-05T10:51:25.915Z,882.12
2018-11-05T10:52:25.915Z,882.10
2018-11-05T10:53:25.841Z,882.07
2018-11-05T10:54:25.830Z,882.12
2018-11-05T10:55:25.852Z,882.05
2018-11-05T10:56:25.816Z,881.99
2018-11-05T10:57:25.808Z,882.08
2018-11-05T10:58:25.798Z,882.05
2018-11-05T10:59:25.792Z,882.03
2018-11-05T11:00:25.778Z,882.08
2018-11-05T11:01:25.774Z,881.98
2018-11-05T11:02:25.761Z,881.90
2018-11-05T11:03:25.747Z,881.96
2018-11-05T11:04:25.794Z,881.84
2018-11-05T11:05:25.733Z,881.89
2018-11-05T11:06:25.717Z,881.88
2018-11-05T11:07:25.711Z,881.89
2018-11-05T11:08:25.707Z,881.88
2018-11-05T11:09:25.749Z,881.92
2018-11-05T11:10:25.686Z,881.88
2018-11-05T11:11:25.680Z,881.96
2018-11-05T11:12:25.668Z,881.87
2018-11-05T11:13:25.656Z,881.96
2018-11-05T11:14:25.647Z,881.96
2018-11-05T11:15:25.740Z,881.99
2018-11-05T11:16:25.629Z,881.91
2018-11-05T11:17:25.620Z,881.97
2018-11-05T11:18:25.600Z,881.95
2018-11-05T11:19:25.594Z,881.94
2018-11-05T11:20:25.591Z,881.96
2018-11-05T11:21:25.576Z,881.93
2018-11-05T11:22:25.572Z,881.90
2018-11-05T11:23:25.555Z,881.99
2018-11-05T11:24:25.550Z,881.90
2018-11-05T11:25:25.537Z,881.82
2018-11-05T11:26:25.533Z,881.93
2018-11-05T11:27:25.515Z,881.97
2018-11-05T11:28:25.599Z,881.97
2018-11-05T11:29:25.716Z,881.89
2018-11-05T11:30:25.489Z,881.81
2018-11-05T11:31:25.479Z,881.90
2018-11-05T11:32:25.471Z,881.87
2018-11-05T11:33:25.457Z,881.81
2018-11-05T11:34:25.456Z,881.86
2018-11-05T11:35:25.447Z,881.88
2018-11-05T11:36:25.440Z,881.84
2018-11-05T11:37:25.424Z,881.71
2018-11-05T11:38:25.412Z,881.78
2018-11-05T11:39:25.404Z,881.69
2018-11-05T11:40:25.398Z,881.69
2018-11-05T11:41:25.385Z,881.72
2018-11-05T11:42:25.371Z,881.70
2018-11-05T11:43:25.359Z,881.71
2018-11-05T11:44:25.383Z,881.81
2018-11-05T11:45:25.346Z,881.84
2018-11-05T11:46:25.339Z,881.72
2018-11-05T11:47:25.337Z,881.75
2018-11-05T11:48:25.319Z,881.65
2018-11-05T11:49:25.315Z,881.75
2018-11-05T11:50:25.294Z,881.66
2018-11-05T11:51:25.323Z,881.61
2018-11-05T11:52:25.322Z,881.65
2018-11-05T11:53:25.353Z,881.62
2018-11-05T11:54:25.263Z,881.71
2018-11-05T11:55:25.263Z,881.73
2018-11-05T11:56:25.237Z,881.69
2018-11-05T11:57:25.232Z,881.72
2018-11-05T11:58:25.236Z,881.75
2018-11-05T11:59:25.308Z,881.68
2018-11-05T12:00:25.205Z,881.61
2018-11-05T12:01:25.195Z,881.61
2018-11-05T12:02:25.195Z,881.59
2018-11-05T12:03:25.203Z,881.62
2018-11-05T12:04:25.165Z,881.56
2018-11-05T12:05:25.309Z,881.56
2018-11-05T12:06:25.168Z,881.55
2018-11-05T12:07:25.154Z,881.55
2018-11-05T12:08:25.137Z,881.58
2018-11-05T12:09:25.122Z,881.59
2018-11-05T12:10:25.116Z,881.62
2018-11-05T12:11:25.110Z,881.55
2018-11-05T12:12:25.097Z,881.62
2018-11-05T12:13:25.085Z,881.58
2018-11-05T12:14:25.108Z,881.69
2018-11-05T12:15:25.076Z,881.70
2018-11-05T12:16:25.057Z,881.68
2018-11-05T12:17:25.047Z,881.56
2018-11-05T12:18:25.043Z,881.53
2018-11-05T12:19:25.034Z,881.58
2018-11-05T12:20:25.041Z,881.58
2018-11-05T12:21:25.019Z,881.66
2018-11-05T12:22:25.010Z,881.57
2018-11-05T12:23:24.999Z,881.59
2018-11-05T12:24:25.024Z,881.67
2018-11-05T12:25:24.983Z,881.64
2018-11-05T12:26:24.973Z,881.60
2018-11-05T12:27:24.961Z,881.60
2018-11-05T12:28:24.962Z,881.61